Time;durP1;ratioP1;P1;durP2;ratioP2;P2;SDS_P1;SDS_P2;PMS_P1;PMS_P2;Temp;Humidity;BMP_temperature;BMP_pressure;BME280_temperature;BME280_humidity;BME280_pressure;Samples;Min_cycle;Max_cycle;Signal;HPM_P1;HPM_P2
2024/01/24 00:01:04;;;;;;;6.47;2.60;;;5.30;99.90;;;;;;5027215;28;20236;-70
2024/01/24 00:03:33;;;;;;;13.87;2.70;;;5.30;99.90;;;;;;5012999;28;20316;-70
2024/01/24 00:06:00;;;;;;;8.23;2.57;;;5.20;99.90;;;;;;5007307;28;20220;-70
2024/01/24 00:08:31;;;;;;;6.73;2.53;;;5.20;99.90;;;;;;5007326;28;20279;-70
2024/01/24 00:10:58;;;;;;;7.53;2.50;;;5.10;99.90;;;;;;5020192;28;20604;-70
2024/01/24 00:13:25;;;;;;;10.13;2.97;;;5.10;99.90;;;;;;5026094;28;20757;-71
2024/01/24 00:15:52;;;;;;;6.53;2.33;;;5.20;99.90;;;;;;5027535;28;20254;-71
2024/01/24 00:18:19;;;;;;;8.87;2.30;;;5.20;99.90;;;;;;5027586;28;20209;-71
2024/01/24 00:20:46;;;;;;;12.57;3.17;;;5.20;99.90;;;;;;5026206;28;20323;-71
2024/01/24 00:23:13;;;;;;;10.13;2.50;;;5.10;99.90;;;;;;5026823;28;20300;-71
2024/01/24 00:25:41;;;;;;;6.63;2.40;;;5.10;99.90;;;;;;5026553;28;20289;-71
2024/01/24 00:28:08;;;;;;;9.83;2.47;;;5.20;99.90;;;;;;5027071;28;20256;-70
2024/01/24 00:30:34;;;;;;;6.30;2.77;;;5.20;99.90;;;;;;5027329;28;20209;-70
2024/01/24 00:33:02;;;;;;;5.57;2.50;;;5.20;99.90;;;;;;5012245;28;20429;-71
2024/01/24 00:35:29;;;;;;;9.00;2.70;;;5.20;99.90;;;;;;5006907;28;20212;-70
2024/01/24 00:37:55;;;;;;;6.50;2.17;;;5.30;99.90;;;;;;5006915;28;20212;-70
2024/01/24 00:40:22;;;;;;;7.90;2.60;;;5.30;99.90;;;;;;5007582;28;20209;-70
2024/01/24 00:42:51;;;;;;;9.07;2.57;;;5.30;99.90;;;;;;5007258;28;20535;-70
2024/01/24 00:45:18;;;;;;;8.10;2.40;;;5.30;99.90;;;;;;5007035;28;20570;-71
2024/01/24 00:47:45;;;;;;;5.10;2.30;;;5.30;99.90;;;;;;5006960;28;20305;-71
2024/01/24 00:50:12;;;;;;;6.53;1.93;;;5.30;99.90;;;;;;5007474;28;20300;-71
2024/01/24 00:52:39;;;;;;;6.40;2.37;;;5.40;99.90;;;;;;5006409;28;20523;-71
2024/01/24 00:55:06;;;;;;;5.83;1.80;;;5.30;99.90;;;;;;5007039;28;20531;-71
2024/01/24 00:57:33;;;;;;;10.93;2.33;;;5.40;99.90;;;;;;5006852;28;20214;-71
2024/01/24 01:00:01;;;;;;;5.63;1.83;;;5.40;99.90;;;;;;5012620;28;20301;-71
2024/01/24 01:02:28;;;;;;;5.10;2.30;;;5.50;99.90;;;;;;5006733;28;20675;-70
2024/01/24 01:04:55;;;;;;;8.40;2.20;;;5.50;99.90;;;;;;5006526;28;20216;-69
2024/01/24 01:07:22;;;;;;;4.37;2.27;;;5.50;99.90;;;;;;5006434;28;20240;-70
2024/01/24 01:09:49;;;;;;;5.50;1.93;;;5.50;99.90;;;;;;5006791;28;20209;-70
2024/01/24 01:12:16;;;;;;;6.37;1.93;;;5.50;99.90;;;;;;5018503;28;20236;-70
2024/01/24 01:14:42;;;;;;;7.03;1.83;;;5.60;99.90;;;;;;5006559;28;20299;-70
2024/01/24 01:17:11;;;;;;;4.93;2.00;;;5.60;99.90;;;;;;5006726;28;20304;-70
2024/01/24 01:19:37;;;;;;;3.83;1.90;;;5.60;99.90;;;;;;5006371;28;20726;-70
2024/01/24 01:22:05;;;;;;;3.70;2.13;;;5.70;99.90;;;;;;5006337;28;20296;-69
2024/01/24 01:24:32;;;;;;;3.10;1.90;;;5.70;99.90;;;;;;5023388;28;20579;-69
2024/01/24 01:26:58;;;;;;;5.23;2.00;;;5.80;99.90;;;;;;5011582;28;20696;-69
2024/01/24 01:29:25;;;;;;;6.80;2.77;;;5.90;99.90;;;;;;5006572;28;20308;-70
2024/01/24 01:31:52;;;;;;;3.10;2.03;;;5.90;99.90;;;;;;5008097;28;20296;-69
2024/01/24 01:34:20;;;;;;;5.20;2.23;;;5.90;99.90;;;;;;5010210;28;20269;-69
2024/01/24 01:36:47;;;;;;;3.53;2.17;;;6.00;99.90;;;;;;5009980;28;20743;-69
2024/01/24 01:39:14;;;;;;;2.37;2.03;;;6.10;99.90;;;;;;5025659;28;20275;-69
2024/01/24 01:41:41;;;;;;;3.63;1.87;;;6.10;99.90;;;;;;5029719;28;20208;-69
2024/01/24 01:44:08;;;;;;;5.20;2.10;;;6.10;99.90;;;;;;5030123;28;20216;-69
2024/01/24 01:46:37;;;;;;;4.33;1.93;;;6.20;99.90;;;;;;5029902;28;20232;-69
2024/01/24 01:49:04;;;;;;;2.80;2.13;;;6.20;99.90;;;;;;5028515;28;20205;-70
2024/01/24 01:51:33;;;;;;;3.03;2.00;;;6.20;99.90;;;;;;5009181;28;20300;-71
2024/01/24 01:54:00;;;;;;;4.03;2.00;;;6.30;99.90;;;;;;5010274;28;20240;-70
2024/01/24 01:56:27;;;;;;;11.93;2.60;;;6.30;99.90;;;;;;5004956;28;20697;-71
2024/01/24 01:58:55;;;;;;;2.43;1.80;;;6.40;99.90;;;;;;5014494;28;20197;-72
2024/01/24 02:01:23;;;;;;;1.90;1.80;;;6.20;99.90;;;;;;5029748;28;20300;-71
2024/01/24 02:03:50;;;;;;;2.20;2.00;;;6.20;99.90;;;;;;5029397;28;20243;-72
2024/01/24 02:06:17;;;;;;;3.37;1.63;;;6.20;99.90;;;;;;5029532;28;20211;-71
2024/01/24 02:08:45;;;;;;;2.37;2.20;;;6.20;99.90;;;;;;5012793;28;20205;-71
2024/01/24 02:11:13;;;;;;;4.03;1.80;;;6.20;99.90;;;;;;5009670;28;20197;-71
2024/01/24 02:13:40;;;;;;;2.87;1.80;;;6.30;99.90;;;;;;5009442;28;20256;-71
2024/01/24 02:16:09;;;;;;;1.73;1.40;;;6.30;99.90;;;;;;5009468;28;20304;-71
2024/01/24 02:18:36;;;;;;;1.77;1.23;;;6.20;99.90;;;;;;5009185;28;20205;-71
2024/01/24 02:21:03;;;;;;;4.37;1.70;;;6.40;99.90;;;;;;5012667;28;20684;-71
2024/01/24 02:23:30;;;;;;;2.47;1.23;;;6.30;99.90;;;;;;5017586;28;20295;-71
2024/01/24 02:25:59;;;;;;;1.30;1.10;;;6.40;99.90;;;;;;5029317;28;20287;-71
2024/01/24 02:28:26;;;;;;;1.37;1.27;;;6.50;99.90;;;;;;5028856;28;20271;-70
2024/01/24 02:30:52;;;;;;;1.70;1.20;;;6.30;99.90;;;;;;5028685;28;20295;-71
2024/01/24 02:33:19;;;;;;;2.27;1.20;;;6.40;99.90;;;;;;5028818;28;20671;-71
2024/01/24 02:35:46;;;;;;;2.20;1.40;;;6.40;99.90;;;;;;5011550;28;20744;-72
2024/01/24 02:38:13;;;;;;;1.37;1.23;;;6.50;99.90;;;;;;5008854;28;20304;-71
2024/01/24 02:40:40;;;;;;;2.47;1.23;;;6.60;99.90;;;;;;5009070;28;20743;-70
2024/01/24 02:43:08;;;;;;;1.50;1.40;;;6.70;99.90;;;;;;5008194;28;20229;-70
2024/01/24 02:45:35;;;;;;;2.50;1.30;;;6.70;99.90;;;;;;5020199;28;20256;-70
2024/01/24 02:48:02;;;;;;;2.90;1.47;;;6.70;99.90;;;;;;5009168;28;20332;-70
2024/01/24 02:50:29;;;;;;;1.83;1.27;;;6.70;99.90;;;;;;5008930;28;20209;-70
2024/01/24 02:52:56;;;;;;;3.80;1.50;;;6.80;99.90;;;;;;5008135;28;20329;-70
2024/01/24 02:55:23;;;;;;;1.30;1.20;;;6.90;99.90;;;;;;5008777;28;20213;-70
2024/01/24 02:57:49;;;;;;;1.30;1.20;;;6.90;99.90;;;;;;5009234;28;20227;-70
2024/01/24 03:00:18;;;;;;;1.27;1.17;;;7.00;99.90;;;;;;5008883;28;20210;-70
2024/01/24 03:02:46;;;;;;;2.57;1.53;;;7.10;99.90;;;;;;5025424;28;20236;-70
2024/01/24 03:05:13;;;;;;;2.80;1.37;;;7.10;99.90;;;;;;5028482;28;20270;-70
2024/01/24 03:07:41;;;;;;;3.93;1.60;;;7.20;99.90;;;;;;5027894;28;20223;-70
2024/01/24 03:10:09;;;;;;;1.93;1.00;;;7.20;99.90;;;;;;5028768;28;21007;-70
2024/01/24 03:12:37;;;;;;;1.60;1.50;;;7.30;99.90;;;;;;5012138;28;20208;-71
2024/01/24 03:15:05;;;;;;;2.30;1.10;;;7.30;99.90;;;;;;5008181;28;20233;-71
2024/01/24 03:17:33;;;;;;;2.93;1.40;;;7.20;99.90;;;;;;5005714;28;20214;-69
2024/01/24 03:20:00;;;;;;;1.90;1.40;;;7.30;99.90;;;;;;5007513;28;20288;-70
2024/01/24 03:22:27;;;;;;;2.43;1.23;;;7.40;99.90;;;;;;5005951;28;20739;-70
2024/01/24 03:24:54;;;;;;;1.37;1.20;;;7.30;99.90;;;;;;5009529;28;20683;-70
2024/01/24 03:27:21;;;;;;;2.00;1.30;;;7.40;99.90;;;;;;5005747;28;20237;-71
2024/01/24 03:29:48;;;;;;;3.43;1.30;;;7.50;99.90;;;;;;5002673;28;20261;-70
2024/01/24 03:32:16;;;;;;;3.40;1.33;;;7.50;99.90;;;;;;5006072;28;20933;-70
2024/01/24 03:34:53;;;;;;;1.60;1.43;;;7.50;99.90;;;;;;5005208;28;20257;-70
2024/01/24 03:37:21;;;;;;;2.27;1.30;;;7.60;99.90;;;;;;5004698;28;20223;-70
2024/01/24 03:39:47;;;;;;;1.20;1.10;;;7.50;99.90;;;;;;5010311;28;20734;-69
2024/01/24 03:42:14;;;;;;;2.63;1.10;;;7.50;99.90;;;;;;5012085;28;20308;-70
2024/01/24 03:44:42;;;;;;;1.70;1.30;;;7.60;99.90;;;;;;5010694;28;20664;-70
2024/01/24 03:47:08;;;;;;;1.03;1.00;;;7.70;99.90;;;;;;5006109;28;20320;-70
2024/01/24 03:49:36;;;;;;;1.10;1.03;;;7.70;99.90;;;;;;5005686;28;20216;-72
2024/01/24 03:52:06;;;;;;;2.10;1.60;;;7.80;99.90;;;;;;5005503;28;20300;-71
2024/01/24 03:54:33;;;;;;;2.20;1.07;;;7.70;99.90;;;;;;5004404;28;20304;-73
2024/01/24 03:57:00;;;;;;;2.83;1.10;;;7.70;99.90;;;;;;5006334;28;20668;-72
2024/01/24 03:59:26;;;;;;;3.30;1.17;;;7.70;99.90;;;;;;5006937;28;20308;-72
2024/01/24 04:01:53;;;;;;;1.70;1.10;;;7.80;99.90;;;;;;5006556;28;20205;-72
2024/01/24 04:04:20;;;;;;;3.70;1.10;;;7.80;99.90;;;;;;5007440;28;20551;-72
2024/01/24 04:06:47;;;;;;;1.37;1.17;;;7.80;99.90;;;;;;5006978;28;20750;-72
2024/01/24 04:09:16;;;;;;;6.00;1.10;;;7.80;99.90;;;;;;5007633;28;20276;-72
2024/01/24 04:11:43;;;;;;;2.63;1.30;;;7.90;99.90;;;;;;5007341;28;20231;-72
2024/01/24 04:14:10;;;;;;;2.10;1.17;;;7.90;99.90;;;;;;5007563;28;20267;-73
2024/01/24 04:16:40;;;;;;;2.50;1.00;;;8.00;99.90;;;;;;5007296;28;20330;-72
2024/01/24 04:19:07;;;;;;;1.67;1.23;;;8.10;99.90;;;;;;5007401;28;20198;-72
2024/01/24 04:21:34;;;;;;;3.40;1.50;;;8.10;99.90;;;;;;5007153;28;20609;-72
2024/01/24 04:24:01;;;;;;;3.93;1.43;;;8.20;99.90;;;;;;5007511;28;20545;-72
2024/01/24 04:26:29;;;;;;;1.73;1.03;;;8.20;99.90;;;;;;5007307;28;20585;-73
2024/01/24 04:28:56;;;;;;;3.20;1.10;;;8.30;99.90;;;;;;5007079;28;20624;-72
2024/01/24 04:31:23;;;;;;;2.80;1.30;;;8.30;99.90;;;;;;5007210;28;20765;-73
2024/01/24 04:33:50;;;;;;;1.67;1.00;;;8.30;99.90;;;;;;5006811;28;20954;-72
2024/01/24 04:36:17;;;;;;;2.80;1.30;;;8.30;99.90;;;;;;5006846;28;20213;-72
2024/01/24 04:38:44;;;;;;;2.10;1.30;;;8.40;99.90;;;;;;5006409;28;20313;-72
2024/01/24 04:41:11;;;;;;;1.80;0.97;;;8.50;99.90;;;;;;5006817;28;20718;-72
2024/01/24 04:43:40;;;;;;;3.23;1.23;;;8.50;99.90;;;;;;5006993;28;20220;-72
2024/01/24 04:46:13;;;;;;;1.50;1.10;;;8.60;99.90;;;;;;5006523;28;20300;-72
2024/01/24 04:48:41;;;;;;;2.97;1.10;;;8.70;99.90;;;;;;5006496;28;20724;-72
2024/01/24 04:51:08;;;;;;;1.97;1.30;;;8.70;99.90;;;;;;5006821;28;20221;-72
2024/01/24 04:53:36;;;;;;;2.53;1.33;;;8.90;99.90;;;;;;5006123;28;20327;-72
2024/01/24 04:56:03;;;;;;;2.17;1.30;;;8.90;99.90;;;;;;5006875;28;20296;-73
2024/01/24 04:58:30;;;;;;;1.17;1.07;;;9.00;99.90;;;;;;5006742;28;20299;-72
2024/01/24 05:00:58;;;;;;;2.47;1.27;;;8.90;99.90;;;;;;5006739;28;20212;-73
2024/01/24 05:03:25;;;;;;;3.73;1.20;;;8.90;99.90;;;;;;5006671;28;20209;-71
2024/01/24 05:05:52;;;;;;;1.30;1.20;;;9.00;99.90;;;;;;5006922;28;20634;-71
2024/01/24 05:08:19;;;;;;;1.83;1.00;;;9.00;99.90;;;;;;5010746;28;20323;-71
2024/01/24 05:10:46;;;;;;;1.57;1.47;;;9.00;99.90;;;;;;5010486;28;20205;-71
2024/01/24 05:13:13;;;;;;;2.53;1.23;;;9.00;99.90;;;;;;5010797;28;20202;-71
2024/01/24 05:15:39;;;;;;;3.07;1.53;;;9.10;99.90;;;;;;5010442;28;20236;-71
2024/01/24 05:18:08;;;;;;;2.47;1.73;;;9.20;99.90;;;;;;5010774;28;20288;-71
2024/01/24 05:20:35;;;;;;;2.23;1.30;;;9.10;99.90;;;;;;4998064;28;20206;-71
2024/01/24 05:23:03;;;;;;;2.90;1.33;;;9.10;99.90;;;;;;4990574;28;20313;-71
2024/01/24 05:25:30;;;;;;;2.83;1.60;;;9.20;99.90;;;;;;4990942;28;20220;-71
2024/01/24 05:27:57;;;;;;;3.03;1.27;;;9.40;99.90;;;;;;4991096;28;20639;-71
2024/01/24 05:30:25;;;;;;;3.87;1.30;;;9.30;99.90;;;;;;4991021;28;20242;-71
2024/01/24 05:32:52;;;;;;;2.57;1.20;;;9.30;99.90;;;;;;4990958;28;20217;-71
2024/01/24 05:35:20;;;;;;;2.07;1.40;;;9.30;99.90;;;;;;4990967;28;20349;-71
2024/01/24 05:37:47;;;;;;;2.37;1.37;;;9.40;99.90;;;;;;4990381;28;20575;-71
2024/01/24 05:40:15;;;;;;;3.80;1.30;;;9.40;99.90;;;;;;4997641;28;20212;-71
2024/01/24 05:42:41;;;;;;;2.77;1.33;;;9.40;99.90;;;;;;5010279;28;20347;-71
2024/01/24 05:45:09;;;;;;;3.00;1.47;;;9.50;99.90;;;;;;5010559;28;20255;-71
2024/01/24 05:47:37;;;;;;;1.97;1.00;;;9.40;99.90;;;;;;5009850;28;20213;-71
2024/01/24 05:50:04;;;;;;;1.80;1.00;;;9.40;99.90;;;;;;5010188;28;20235;-71
2024/01/24 05:52:33;;;;;;;2.30;1.00;;;9.50;99.90;;;;;;5006470;28;20312;-71
2024/01/24 05:55:00;;;;;;;2.40;1.53;;;9.50;99.90;;;;;;5009619;28;20245;-70
2024/01/24 05:57:27;;;;;;;2.03;1.33;;;9.60;99.90;;;;;;5009967;28;20312;-71
2024/01/24 05:59:54;;;;;;;1.83;1.10;;;9.50;99.90;;;;;;5009950;28;20775;-71
2024/01/24 06:02:24;;;;;;;3.73;1.30;;;9.50;99.90;;;;;;5009554;28;20650;-71
2024/01/24 06:04:51;;;;;;;3.00;0.97;;;9.40;99.90;;;;;;5010239;28;20308;-71
2024/01/24 06:07:18;;;;;;;3.13;1.30;;;9.40;99.90;;;;;;5009811;28;20215;-71
2024/01/24 06:09:46;;;;;;;1.90;0.90;;;9.50;99.90;;;;;;5009690;28;20205;-71
2024/01/24 06:12:13;;;;;;;1.83;1.20;;;9.50;99.90;;;;;;5009881;28;20260;-71
2024/01/24 06:14:40;;;;;;;0.90;0.83;;;9.50;99.90;;;;;;5009869;28;20315;-72
2024/01/24 06:17:07;;;;;;;1.27;1.17;;;9.50;99.90;;;;;;5009581;28;20217;-71
2024/01/24 06:19:34;;;;;;;1.90;1.03;;;9.60;99.90;;;;;;5009486;28;20440;-71
2024/01/24 06:22:01;;;;;;;4.23;1.33;;;9.50;99.90;;;;;;5009354;28;20209;-71
2024/01/24 06:24:28;;;;;;;1.37;0.90;;;9.60;99.90;;;;;;5009518;28;20304;-71
2024/01/24 06:26:56;;;;;;;1.70;0.97;;;9.60;99.90;;;;;;5009629;28;20252;-71
2024/01/24 06:29:23;;;;;;;1.60;0.73;;;9.60;99.90;;;;;;5009391;28;20680;-71
2024/01/24 06:31:50;;;;;;;2.40;0.90;;;9.60;99.90;;;;;;5009182;28;20315;-71
2024/01/24 06:34:17;;;;;;;0.97;0.90;;;9.70;99.90;;;;;;5009613;28;20256;-71
2024/01/24 06:36:43;;;;;;;1.60;0.70;;;9.60;99.90;;;;;;5009107;28;20272;-71
2024/01/24 06:39:10;;;;;;;1.33;1.20;;;9.70;99.90;;;;;;5009061;28;20205;-71
2024/01/24 06:41:37;;;;;;;1.77;1.00;;;9.80;99.90;;;;;;5009134;28;20240;-71
2024/01/24 06:44:06;;;;;;;1.43;0.83;;;9.90;99.90;;;;;;5009239;28;20221;-71
2024/01/24 06:46:33;;;;;;;1.80;0.77;;;10.00;99.90;;;;;;5008869;28;20929;-71
2024/01/24 06:49:00;;;;;;;0.73;0.50;;;10.20;99.90;;;;;;5008832;28;20748;-71
2024/01/24 06:51:27;;;;;;;0.90;0.70;;;10.30;99.90;;;;;;5008701;28;20205;-71
2024/01/24 06:53:53;;;;;;;0.67;0.60;;;10.30;99.90;;;;;;5008659;28;20787;-71
2024/01/24 06:56:22;;;;;;;0.87;0.53;;;10.30;99.90;;;;;;5008603;28;20319;-71
2024/01/24 06:58:49;;;;;;;0.63;0.63;;;10.30;99.90;;;;;;5008593;28;20660;-71
2024/01/24 07:01:17;;;;;;;2.63;0.73;;;10.30;99.90;;;;;;5008854;28;20241;-71
2024/01/24 07:03:45;;;;;;;2.83;1.00;;;9.90;99.90;;;;;;5008736;28;20304;-72
2024/01/24 07:06:12;;;;;;;4.60;1.10;;;9.50;99.90;;;;;;5008851;28;20304;-71
2024/01/24 07:08:40;;;;;;;4.40;1.20;;;9.40;99.90;;;;;;5008314;28;20304;-71
2024/01/24 07:11:07;;;;;;;2.87;1.00;;;9.50;99.90;;;;;;5008875;28;20213;-71
2024/01/24 07:13:34;;;;;;;2.40;0.70;;;9.50;99.90;;;;;;5008494;28;20293;-71
2024/01/24 07:16:04;;;;;;;2.00;0.60;;;9.70;99.90;;;;;;5008382;28;20802;-71
2024/01/24 07:18:32;;;;;;;3.00;1.20;;;9.80;99.90;;;;;;5008407;28;20674;-71
2024/01/24 07:21:00;;;;;;;4.50;1.73;;;9.90;99.90;;;;;;5008581;28;20300;-71
2024/01/24 07:23:27;;;;;;;2.07;1.30;;;10.00;99.90;;;;;;5008082;28;20296;-71
2024/01/24 07:25:54;;;;;;;5.40;1.70;;;10.00;99.90;;;;;;5008490;28;20209;-71
2024/01/24 07:28:23;;;;;;;9.13;2.20;;;10.00;99.90;;;;;;5008387;28;20935;-71
2024/01/24 07:30:50;;;;;;;9.10;2.07;;;10.00;99.90;;;;;;5007960;28;20245;-70
2024/01/24 07:33:17;;;;;;;3.10;1.80;;;10.10;99.90;;;;;;5008090;28;20641;-70
2024/01/24 07:35:45;;;;;;;7.53;2.30;;;10.10;99.90;;;;;;5007788;28;20725;-71
2024/01/24 07:38:12;;;;;;;5.57;1.70;;;10.00;99.90;;;;;;5007988;28;20237;-71
2024/01/24 07:40:39;;;;;;;5.97;1.90;;;9.90;99.90;;;;;;5008010;28;20950;-71
2024/01/24 07:43:06;;;;;;;7.07;2.17;;;9.90;99.90;;;;;;5007968;28;20787;-71
2024/01/24 07:45:33;;;;;;;8.60;2.03;;;9.90;99.90;;;;;;5007647;28;20332;-71
2024/01/24 07:48:00;;;;;;;8.03;2.23;;;9.90;99.90;;;;;;5008103;28;20216;-71
2024/01/24 07:50:27;;;;;;;8.87;2.03;;;9.90;99.90;;;;;;5008047;28;20300;-71
2024/01/24 07:52:55;;;;;;;4.70;1.70;;;9.90;99.90;;;;;;5007476;28;20234;-71
2024/01/24 07:55:22;;;;;;;8.93;2.30;;;9.90;99.90;;;;;;5007797;28;20307;-71
2024/01/24 07:57:49;;;;;;;9.47;2.10;;;9.90;99.90;;;;;;5007721;28;20301;-71
2024/01/24 08:00:17;;;;;;;11.07;2.30;;;10.00;99.90;;;;;;5007581;28;20332;-71
2024/01/24 08:02:44;;;;;;;7.83;2.27;;;10.00;99.90;;;;;;5007715;28;20305;-71
2024/01/24 08:05:12;;;;;;;10.33;2.63;;;10.10;99.90;;;;;;5007518;28;20712;-71
2024/01/24 08:07:40;;;;;;;9.27;2.43;;;10.10;99.90;;;;;;5007328;28;20201;-71
2024/01/24 08:10:11;;;;;;;8.50;2.70;;;10.10;99.90;;;;;;5007566;28;20312;-71
2024/01/24 08:12:39;;;;;;;11.20;2.50;;;10.10;99.90;;;;;;5007516;28;20201;-71
2024/01/24 08:15:07;;;;;;;11.10;2.90;;;10.00;99.90;;;;;;5007434;28;20609;-71
2024/01/24 08:17:34;;;;;;;5.70;1.90;;;9.90;99.90;;;;;;5007211;28;20301;-71
2024/01/24 08:20:03;;;;;;;12.13;2.90;;;9.90;99.90;;;;;;5007198;28;20220;-71
2024/01/24 08:22:30;;;;;;;7.23;2.23;;;9.90;99.90;;;;;;5006970;28;20217;-71
2024/01/24 08:24:58;;;;;;;6.13;2.00;;;9.90;99.90;;;;;;5007429;28;20304;-71
2024/01/24 08:27:26;;;;;;;7.17;2.20;;;9.90;99.90;;;;;;5007067;28;20678;-71
2024/01/24 08:29:53;;;;;;;9.50;2.37;;;9.90;99.90;;;;;;5006893;28;20669;-71
2024/01/24 08:32:21;;;;;;;6.50;2.20;;;10.00;99.90;;;;;;5007327;28;20233;-71
2024/01/24 08:34:48;;;;;;;7.80;1.80;;;10.00;99.90;;;;;;5006590;28;20222;-71
2024/01/24 08:37:15;;;;;;;9.93;2.20;;;10.00;99.90;;;;;;5006580;28;20304;-71
2024/01/24 08:39:42;;;;;;;9.57;2.30;;;10.00;99.90;;;;;;5006769;28;20755;-71
2024/01/24 08:42:09;;;;;;;7.20;2.53;;;10.10;99.90;;;;;;5005855;28;20786;-71
2024/01/24 08:44:37;;;;;;;7.70;2.03;;;10.20;99.90;;;;;;5007080;28;20574;-71
2024/01/24 08:47:04;;;;;;;6.03;1.80;;;10.30;99.90;;;;;;5007211;28;20295;-71
2024/01/24 08:49:31;;;;;;;10.80;2.33;;;10.30;99.90;;;;;;5007102;28;20241;-71
2024/01/24 08:51:58;;;;;;;4.60;1.77;;;10.20;99.90;;;;;;5006710;28;20244;-71
2024/01/24 08:54:25;;;;;;;8.13;1.97;;;10.10;99.90;;;;;;5006881;28;20667;-71
2024/01/24 08:56:52;;;;;;;10.23;2.77;;;10.00;99.90;;;;;;5006972;28;20315;-71
2024/01/24 08:59:19;;;;;;;4.63;2.13;;;9.90;99.90;;;;;;5007280;28;20209;-71
2024/01/24 09:01:48;;;;;;;10.23;2.00;;;9.70;99.90;;;;;;5006960;28;20209;-71
2024/01/24 09:04:14;;;;;;;5.97;2.10;;;9.70;99.90;;;;;;5006762;28;20764;-71
2024/01/24 09:06:42;;;;;;;7.70;2.30;;;9.60;99.90;;;;;;5006338;28;20780;-71
2024/01/24 09:09:13;;;;;;;7.87;2.03;;;9.50;99.90;;;;;;5007242;28;20224;-71
2024/01/24 09:11:40;;;;;;;6.80;1.90;;;9.40;99.90;;;;;;5007093;28;20198;-71
2024/01/24 09:14:07;;;;;;;7.13;1.83;;;9.50;99.90;;;;;;5007094;28;20218;-71
2024/01/24 09:16:34;;;;;;;9.27;2.07;;;9.40;99.90;;;;;;5006891;28;20273;-71
2024/01/24 09:19:02;;;;;;;6.40;1.80;;;9.50;99.90;;;;;;5006935;28;20299;-71
2024/01/24 09:21:30;;;;;;;7.00;2.23;;;9.60;99.90;;;;;;5006318;28;20297;-71
2024/01/24 09:23:57;;;;;;;8.23;1.77;;;9.60;99.90;;;;;;5006443;28;20684;-71
2024/01/24 09:26:24;;;;;;;6.73;1.87;;;9.70;99.90;;;;;;5001967;28;20259;-71
2024/01/24 09:28:51;;;;;;;7.63;2.30;;;9.80;99.90;;;;;;5006821;28;20209;-72
2024/01/24 09:31:18;;;;;;;5.93;1.90;;;9.90;99.90;;;;;;5006318;28;20687;-71
2024/01/24 09:33:45;;;;;;;4.83;1.87;;;10.00;99.90;;;;;;5006523;28;20209;-71
2024/01/24 09:36:13;;;;;;;5.43;1.60;;;10.10;99.90;;;;;;5006438;28;20324;-71
2024/01/24 09:38:44;;;;;;;5.17;2.20;;;10.10;99.90;;;;;;5005991;28;20684;-71
2024/01/24 09:41:18;;;;;;;6.97;2.30;;;10.10;99.90;;;;;;5006452;28;20201;-72
2024/01/24 09:43:46;;;;;;;8.70;2.00;;;10.30;99.90;;;;;;5006536;28;20221;-70
2024/01/24 09:46:16;;;;;;;6.50;2.00;;;10.30;99.90;;;;;;5006177;28;20212;-71
2024/01/24 09:48:46;;;;;;;5.80;1.70;;;10.30;99.90;;;;;;5006434;28;20208;-71
2024/01/24 09:51:14;;;;;;;6.90;2.80;;;10.20;99.90;;;;;;5006362;28;20300;-71
2024/01/24 09:53:45;;;;;;;9.87;1.97;;;10.20;99.90;;;;;;5008530;28;20683;-71
2024/01/24 09:56:13;;;;;;;8.17;2.40;;;10.20;99.90;;;;;;5009738;28;20221;-71
2024/01/24 09:58:40;;;;;;;5.90;2.00;;;10.30;99.90;;;;;;5010269;28;20301;-71
2024/01/24 10:01:11;;;;;;;7.10;2.30;;;10.40;99.90;;;;;;5010041;28;20208;-71
2024/01/24 10:03:39;;;;;;;7.07;2.13;;;10.50;99.90;;;;;;5009989;28;20764;-70
2024/01/24 10:06:09;;;;;;;5.87;2.03;;;10.60;99.90;;;;;;5009711;28;20201;-71
2024/01/24 10:08:37;;;;;;;10.93;2.73;;;10.70;99.90;;;;;;5009396;28;20584;-71
2024/01/24 10:11:05;;;;;;;7.30;1.93;;;10.80;99.90;;;;;;5009804;28;20205;-71
2024/01/24 10:13:31;;;;;;;10.50;2.50;;;10.90;99.90;;;;;;5009438;28;20216;-70
2024/01/24 10:16:00;;;;;;;9.53;2.57;;;10.90;99.90;;;;;;5009840;28;20225;-71
2024/01/24 10:18:27;;;;;;;12.13;2.87;;;10.80;99.90;;;;;;5009312;28;20220;-71
2024/01/24 10:20:56;;;;;;;7.33;2.57;;;10.80;99.90;;;;;;5009306;28;20638;-70
2024/01/24 10:23:23;;;;;;;9.90;2.93;;;10.90;99.90;;;;;;5008973;28;20336;-70
2024/01/24 10:25:51;;;;;;;11.73;3.03;;;10.90;99.90;;;;;;5009157;28;20221;-71
2024/01/24 10:28:18;;;;;;;7.57;2.47;;;11.10;99.90;;;;;;5009559;28;20218;-70
2024/01/24 10:30:48;;;;;;;11.13;3.27;;;11.20;99.90;;;;;;5009186;28;20698;-71
2024/01/24 10:33:15;;;;;;;10.80;2.73;;;11.20;99.90;;;;;;5009579;28;20194;-70
2024/01/24 10:35:43;;;;;;;8.80;2.70;;;11.30;99.90;;;;;;5009007;28;20240;-71
2024/01/24 10:38:12;;;;;;;10.60;2.80;;;11.30;99.90;;;;;;5009052;28;20241;-71
2024/01/24 10:40:40;;;;;;;7.83;2.70;;;11.40;99.90;;;;;;5009062;28;20305;-71
2024/01/24 10:43:13;;;;;;;8.97;2.70;;;11.60;99.90;;;;;;5008968;28;20265;-71
2024/01/24 10:45:44;;;;;;;8.93;3.00;;;11.50;99.90;;;;;;5008792;28;20197;-70
2024/01/24 10:48:12;;;;;;;11.70;3.23;;;11.40;99.90;;;;;;5009237;28;20194;-71
2024/01/24 10:50:40;;;;;;;9.73;3.03;;;11.40;99.90;;;;;;5009059;28;20296;-71
2024/01/24 10:53:09;;;;;;;7.03;2.73;;;11.40;99.90;;;;;;5008724;28;20237;-71
2024/01/24 10:55:37;;;;;;;13.27;3.30;;;11.40;99.90;;;;;;5009146;28;20225;-71
2024/01/24 10:58:04;;;;;;;6.77;2.57;;;11.30;99.90;;;;;;5008971;28;20316;-71
2024/01/24 11:00:34;;;;;;;10.50;3.30;;;11.30;99.90;;;;;;5008702;28;20688;-71
2024/01/24 11:03:01;;;;;;;8.97;2.80;;;11.30;99.90;;;;;;5008734;28;20668;-71
2024/01/24 11:05:37;;;;;;;13.03;3.43;;;11.30;99.90;;;;;;5007998;28;20677;-71
2024/01/24 11:08:08;;;;;;;10.27;3.47;;;11.30;99.90;;;;;;5008367;28;20633;-71
2024/01/24 11:10:38;;;;;;;10.83;3.43;;;11.30;99.90;;;;;;5008419;28;20229;-70
2024/01/24 11:13:06;;;;;;;9.47;3.23;;;11.30;99.90;;;;;;5008905;28;20200;-71
2024/01/24 11:15:35;;;;;;;7.67;2.63;;;11.30;99.90;;;;;;5008161;28;20205;-75
2024/01/24 11:18:23;;;;;;;7.93;3.17;;;11.30;99.90;;;;;;5008407;28;20248;-75
2024/01/24 11:20:52;;;;;;;9.07;3.20;;;11.20;99.90;;;;;;5002690;28;20223;-75
2024/01/24 11:23:40;;;;;;;10.30;3.03;;;11.30;99.90;;;;;;5008453;28;20663;-75
2024/01/24 11:26:09;;;;;;;12.37;3.10;;;11.30;99.90;;;;;;5008631;28;20198;-75
2024/01/24 11:28:35;;;;;;;10.37;3.23;;;11.30;99.90;;;;;;5008300;28;20219;-75
2024/01/24 11:31:04;;;;;;;7.57;2.93;;;11.30;99.90;;;;;;5008489;28;20263;-75
2024/01/24 11:33:31;;;;;;;11.27;2.97;;;11.30;99.90;;;;;;5007974;28;20287;-75
2024/01/24 11:35:59;;;;;;;9.63;2.83;;;11.30;99.90;;;;;;5008111;28;20322;-74
2024/01/24 11:38:37;;;;;;;12.17;3.13;;;11.30;99.90;;;;;;5008280;28;20212;-74
2024/01/24 11:41:22;;;;;;;8.07;2.80;;;11.40;99.90;;;;;;5008491;28;20241;-75
2024/01/24 11:43:50;;;;;;;13.83;2.83;;;11.30;99.90;;;;;;5008119;28;20227;-75
2024/01/24 11:46:20;;;;;;;8.33;3.10;;;11.30;99.90;;;;;;5008131;28;20325;-75
2024/01/24 11:48:47;;;;;;;10.20;2.57;;;11.30;99.90;;;;;;5007910;28;20568;-75
2024/01/24 11:51:17;;;;;;;8.27;2.90;;;11.30;99.90;;;;;;4990290;28;20216;-75
2024/01/24 11:53:44;;;;;;;10.77;2.70;;;11.50;99.90;;;;;;4987900;28;20242;-75
2024/01/24 11:56:14;;;;;;;9.53;2.93;;;11.70;99.90;;;;;;4988359;28;20234;-75
2024/01/24 11:58:41;;;;;;;14.37;3.37;;;11.80;99.90;;;;;;4988285;28;20613;-75
2024/01/24 12:01:10;;;;;;;6.80;2.60;;;11.90;99.90;;;;;;4988516;28;20289;-75
2024/01/24 12:03:45;;;;;;;8.80;2.77;;;11.80;99.90;;;;;;4988329;28;20214;-75
2024/01/24 12:06:12;;;;;;;6.63;2.40;;;11.70;99.90;;;;;;4987928;28;20281;-75
2024/01/24 12:08:39;;;;;;;9.63;2.90;;;11.60;99.90;;;;;;4987865;28;20221;-75
2024/01/24 12:11:08;;;;;;;7.77;3.00;;;11.60;99.90;;;;;;4987985;28;20699;-75
2024/01/24 12:13:36;;;;;;;9.10;2.63;;;11.50;99.90;;;;;;4987612;28;20210;-75
2024/01/24 12:19:29;;;;;;;9.93;2.57;;;11.40;99.90;;;;;;5007353;28;20201;-75
2024/01/24 12:21:57;;;;;;;7.63;2.40;;;11.40;99.90;;;;;;5007439;28;20260;-75
2024/01/24 12:24:27;;;;;;;10.37;2.93;;;11.30;99.90;;;;;;5007419;28;20583;-75
2024/01/24 12:26:54;;;;;;;9.80;2.90;;;11.30;99.90;;;;;;5007696;28;20205;-76
2024/01/24 12:29:22;;;;;;;7.03;2.43;;;11.20;99.90;;;;;;5007490;28;20267;-76
2024/01/24 12:31:49;;;;;;;12.33;2.83;;;11.20;99.90;;;;;;5007398;28;20576;-76
2024/01/24 12:34:16;;;;;;;12.50;3.10;;;11.20;99.90;;;;;;5007692;28;20307;-76
2024/01/24 12:36:45;;;;;;;9.43;3.00;;;11.10;99.90;;;;;;5007238;28;20237;-76
2024/01/24 12:39:12;;;;;;;8.27;2.87;;;11.20;99.90;;;;;;5007439;28;20304;-76
2024/01/24 12:41:39;;;;;;;6.20;2.47;;;11.20;99.90;;;;;;5007513;28;20320;-76
2024/01/24 12:44:06;;;;;;;11.17;3.33;;;11.20;99.90;;;;;;5007499;28;20206;-75
2024/01/24 12:46:33;;;;;;;8.47;2.73;;;11.20;99.90;;;;;;5007558;28;20214;-76
2024/01/24 12:49:00;;;;;;;11.07;2.67;;;11.20;99.90;;;;;;5007287;28;20325;-76
2024/01/24 12:51:27;;;;;;;10.37;3.13;;;11.30;99.90;;;;;;5006836;28;20767;-76
2024/01/24 12:53:55;;;;;;;12.07;2.50;;;11.30;99.90;;;;;;5006828;28;20336;-77
2024/01/24 12:56:22;;;;;;;9.50;2.80;;;11.30;99.90;;;;;;5006989;28;20229;-76
2024/01/24 12:58:50;;;;;;;10.60;2.83;;;11.30;99.90;;;;;;5006810;28;20751;-76